Time;durP1;ratioP1;P1;durP2;ratioP2;P2;SDS_P1;SDS_P2;PMS_P1;PMS_P2;Temp;Humidity;BMP_temperature;BMP_pressure;BME280_temperature;BME280_humidity;BME280_pressure;Samples;Min_cycle;Max_cycle;Signal;HPM_P1;HPM_P2
2021/04/17 00:00:17;;;;;;;5.3;3.93;;;8.4;90.6;;;;;;;;;
2021/04/17 00:01:02;;;;;;;5.3;3.93;;;8.4;90.6;;;;;;;;;
2021/04/17 00:02:02;;;;;;;5.03;4.37;;;8.3;90.9;;;;;;;;;
2021/04/17 00:02:30;;;;;;;4.9;4.3;;;8.3;90.9;;;;;;;;;
2021/04/17 00:03:02;;;;;;;4.9;4.3;;;8.3;90.9;;;;;;;;;
2021/04/17 00:03:16;;;;;;;4.9;4.3;;;8.3;90.9;;;;;;;;;
2021/04/17 00:04:02;;;;;;;4.6;4;;;8.2;91;;;;;;;;;
2021/04/17 00:04:17;;;;;;;6.5;4.6;;;8.2;91.1;;;;;;;;;
2021/04/17 00:04:43;;;;;;;6.5;4.6;;;8.2;91.1;;;;;;;;;
2021/04/17 00:05:02;;;;;;;6.5;4.6;;;8.2;91.1;;;;;;;;;
2021/04/17 00:05:14;;;;;;;6.5;4.6;;;8.2;91.1;;;;;;;;;
2021/04/17 00:05:29;;;;;;;6.13;4.3;;;8.3;91;;;;;;;;;
2021/04/17 00:06:02;;;;;;;6.13;4.3;;;8.3;91;;;;;;;;;
2021/04/17 00:06:15;;;;;;;6.13;4.3;;;8.3;91;;;;;;;;;
2021/04/17 00:06:30;;;;;;;5.2;4.07;;;8.3;91.3;;;;;;;;;
2021/04/17 00:06:56;;;;;;;5.2;4.07;;;8.3;91.3;;;;;;;;;
2021/04/17 00:07:02;;;;;;;5.2;4.07;;;8.3;91.3;;;;;;;;;
2021/04/17 00:07:17;;;;;;;5.2;4.07;;;8.3;91.3;;;;;;;;;
2021/04/17 00:07:27;;;;;;;9.47;4.8;;;8.2;91;;;;;;;;;
2021/04/17 00:07:42;;;;;;;9.47;4.8;;;8.2;91;;;;;;;;;
2021/04/17 00:08:02;;;;;;;9.47;4.8;;;8.2;91;;;;;;;;;
2021/04/17 00:08:13;;;;;;;9.47;4.8;;;8.2;91;;;;;;;;;
2021/04/17 00:08:28;;;;;;;5.37;4.6;;;8.2;91;;;;;;;;;
2021/04/17 00:08:44;;;;;;;5.37;4.6;;;8.2;91;;;;;;;;;
2021/04/17 00:09:02;;;;;;;5.37;4.6;;;8.2;91;;;;;;;;;
2021/04/17 00:09:09;;;;;;;5.37;4.6;;;8.2;91;;;;;;;;;
2021/04/17 00:09:14;;;;;;;5.37;4.6;;;8.2;91;;;;;;;;;
2021/04/17 00:09:30;;;;;;;5.23;4.1;;;8.3;91;;;;;;;;;
2021/04/17 00:09:40;;;;;;;5.23;4.1;;;8.3;91;;;;;;;;;
2021/04/17 00:09:55;;;;;;;5.23;4.1;;;8.3;91;;;;;;;;;
2021/04/17 00:10:01;;;;;;;5.23;4.1;;;8.3;91;;;;;;;;;
2021/04/17 00:10:16;;;;;;;5.23;4.1;;;8.3;91;;;;;;;;;
2021/04/17 00:10:26;;;;;;;7.27;4.8;;;8.2;91;;;;;;;;;
2021/04/17 00:10:41;;;;;;;7.27;4.8;;;8.2;91;;;;;;;;;
2021/04/17 00:10:57;;;;;;;7.27;4.8;;;8.2;91;;;;;;;;;
2021/04/17 00:11:01;;;;;;;7.27;4.8;;;8.2;91;;;;;;;;;
2021/04/17 00:11:19;;;;;;;7.27;4.8;;;8.2;91;;;;;;;;;
2021/04/17 00:11:27;;;;;;;5;4.13;;;8.2;91;;;;;;;;;
2021/04/17 00:11:43;;;;;;;5;4.13;;;8.2;91;;;;;;;;;
2021/04/17 00:11:53;;;;;;;5;4.13;;;8.2;91;;;;;;;;;
2021/04/17 00:12:02;;;;;;;5;4.13;;;8.2;91;;;;;;;;;
2021/04/17 00:12:08;;;;;;;5;4.13;;;8.2;91;;;;;;;;;
2021/04/17 00:12:13;;;;;;;5;4.13;;;8.2;91;;;;;;;;;
2021/04/17 00:12:29;;;;;;;7.7;4.2;;;8.2;91.1;;;;;;;;;
2021/04/17 00:12:39;;;;;;;7.7;4.2;;;8.2;91.1;;;;;;;;;
2021/04/17 00:12:54;;;;;;;7.7;4.2;;;8.2;91.1;;;;;;;;;
2021/04/17 00:13:02;;;;;;;7.7;4.2;;;8.2;91.1;;;;;;;;;
2021/04/17 00:13:10;;;;;;;7.7;4.2;;;8.2;91.1;;;;;;;;;
2021/04/17 00:13:15;;;;;;;7.7;4.2;;;8.2;91.1;;;;;;;;;
2021/04/17 00:13:30;;;;;;;4.47;3.67;;;8.2;91.1;;;;;;;;;
2021/04/17 00:13:41;;;;;;;4.47;3.67;;;8.2;91.1;;;;;;;;;
2021/04/17 00:13:56;;;;;;;4.47;3.67;;;8.2;91.1;;;;;;;;;
2021/04/17 00:14:02;;;;;;;4.47;3.67;;;8.2;91.1;;;;;;;;;
2021/04/17 00:14:06;;;;;;;4.47;3.67;;;8.2;91.1;;;;;;;;;
2021/04/17 00:14:16;;;;;;;4.47;3.67;;;8.2;91.1;;;;;;;;;
2021/04/17 00:14:27;;;;;;;5.53;4.6;;;8.2;91.1;;;;;;;;;
2021/04/17 00:14:42;;;;;;;5.53;4.6;;;8.2;91.1;;;;;;;;;
2021/04/17 00:14:52;;;;;;;5.53;4.6;;;8.2;91.1;;;;;;;;;
2021/04/17 00:15:02;;;;;;;5.53;4.6;;;8.2;91.1;;;;;;;;;
2021/04/17 00:15:08;;;;;;;5.53;4.6;;;8.2;91.1;;;;;;;;;
2021/04/17 00:15:13;;;;;;;5.53;4.6;;;8.2;91.1;;;;;;;;;
2021/04/17 00:15:28;;;;;;;4.73;3.7;;;8.3;91.1;;;;;;;;;
2021/04/17 00:15:43;;;;;;;4.73;3.7;;;8.3;91.1;;;;;;;;;
2021/04/17 00:15:54;;;;;;;4.73;3.7;;;8.3;91.1;;;;;;;;;
2021/04/17 00:16:01;;;;;;;4.73;3.7;;;8.3;91.1;;;;;;;;;
2021/04/17 00:16:09;;;;;;;4.73;3.7;;;8.3;91.1;;;;;;;;;
2021/04/17 00:16:14;;;;;;;4.73;3.7;;;8.3;91.1;;;;;;;;;
2021/04/17 00:16:29;;;;;;;5.2;3.8;;;8.2;91.1;;;;;;;;;
2021/04/17 00:16:40;;;;;;;5.2;3.8;;;8.2;91.1;;;;;;;;;
2021/04/17 00:16:55;;;;;;;5.2;3.8;;;8.2;91.1;;;;;;;;;
2021/04/17 00:17:02;;;;;;;5.2;3.8;;;8.2;91.1;;;;;;;;;
2021/04/17 00:17:05;;;;;;;5.2;3.8;;;8.2;91.1;;;;;;;;;
2021/04/17 00:17:16;;;;;;;5.2;3.8;;;8.2;91.1;;;;;;;;;
2021/04/17 00:17:28;;;;;;;8.37;5;;;8.2;91.3;;;;;;;;;
2021/04/17 00:17:41;;;;;;;8.37;5;;;8.2;91.3;;;;;;;;;
2021/04/17 00:17:57;;;;;;;8.37;5;;;8.2;91.3;;;;;;;;;
2021/04/17 00:18:01;;;;;;;8.37;5;;;8.2;91.3;;;;;;;;;
2021/04/17 00:18:07;;;;;;;8.37;5;;;8.2;91.3;;;;;;;;;
2021/04/17 00:18:12;;;;;;;8.37;5;;;8.2;91.3;;;;;;;;;
2021/04/17 00:18:27;;;;;;;5.67;3.9;;;8.3;91.2;;;;;;;;;
2021/04/17 00:18:43;;;;;;;5.67;3.9;;;8.3;91.2;;;;;;;;;
2021/04/17 00:18:53;;;;;;;5.67;3.9;;;8.3;91.2;;;;;;;;;
2021/04/17 00:19:02;;;;;;;5.67;3.9;;;8.3;91.2;;;;;;;;;
2021/04/17 00:19:08;;;;;;;5.67;3.9;;;8.3;91.2;;;;;;;;;
2021/04/17 00:19:13;;;;;;;5.67;3.9;;;8.3;91.2;;;;;;;;;
2021/04/17 00:19:29;;;;;;;5.23;4.13;;;8.3;91.1;;;;;;;;;
2021/04/17 00:19:39;;;;;;;5.23;4.13;;;8.3;91.1;;;;;;;;;
2021/04/17 00:19:54;;;;;;;5.23;4.13;;;8.3;91.1;;;;;;;;;
2021/04/17 00:20:02;;;;;;;5.23;4.13;;;8.3;91.1;;;;;;;;;
2021/04/17 00:20:10;;;;;;;5.23;4.13;;;8.3;91.1;;;;;;;;;
2021/04/17 00:20:15;;;;;;;5.23;4.13;;;8.3;91.1;;;;;;;;;
2021/04/17 00:20:25;;;;;;;5.57;4.3;;;8.3;91.1;;;;;;;;;
2021/04/17 00:20:40;;;;;;;5.57;4.3;;;8.3;91.1;;;;;;;;;
2021/04/17 00:20:56;;;;;;;5.57;4.3;;;8.3;91.1;;;;;;;;;
2021/04/17 00:21:01;;;;;;;5.57;4.3;;;8.3;91.1;;;;;;;;;
2021/04/17 00:21:06;;;;;;;5.57;4.3;;;8.3;91.1;;;;;;;;;
2021/04/17 00:21:18;;;;;;;5.57;4.3;;;8.3;91.1;;;;;;;;;
2021/04/17 00:21:27;;;;;;;4.93;4.2;;;8.3;91.1;;;;;;;;;
2021/04/17 00:21:42;;;;;;;4.93;4.2;;;8.3;91.1;;;;;;;;;
2021/04/17 00:21:52;;;;;;;4.93;4.2;;;8.3;91.1;;;;;;;;;
2021/04/17 00:22:02;;;;;;;4.93;4.2;;;8.3;91.1;;;;;;;;;
2021/04/17 00:22:07;;;;;;;4.93;4.2;;;8.3;91.1;;;;;;;;;
2021/04/17 00:22:18;;;;;;;4.93;4.2;;;8.3;91.1;;;;;;;;;
2021/04/17 00:22:28;;;;;;;6.17;4.33;;;8.3;91;;;;;;;;;
2021/04/17 00:22:39;;;;;;;6.17;4.33;;;8.3;91;;;;;;;;;
2021/04/17 00:22:53;;;;;;;6.17;4.33;;;8.3;91;;;;;;;;;
2021/04/17 00:23:01;;;;;;;6.17;4.33;;;8.3;91;;;;;;;;;
2021/04/17 00:23:09;;;;;;;6.17;4.33;;;8.3;91;;;;;;;;;
2021/04/17 00:23:14;;;;;;;6.17;4.33;;;8.3;91;;;;;;;;;
2021/04/17 00:23:29;;;;;;;5.27;3.93;;;8.3;91.1;;;;;;;;;
2021/04/17 00:23:40;;;;;;;5.27;3.93;;;8.3;91.1;;;;;;;;;
2021/04/17 00:23:55;;;;;;;5.27;3.93;;;8.3;91.1;;;;;;;;;
2021/04/17 00:24:02;;;;;;;5.27;3.93;;;8.3;91.1;;;;;;;;;
2021/04/17 00:24:05;;;;;;;5.27;3.93;;;8.3;91.1;;;;;;;;;
2021/04/17 00:24:15;;;;;;;5.27;3.93;;;8.3;91.1;;;;;;;;;
2021/04/17 00:24:31;;;;;;;10.73;4.5;;;8.3;91;;;;;;;;;
2021/04/17 00:24:41;;;;;;;10.73;4.5;;;8.3;91;;;;;;;;;
2021/04/17 00:24:51;;;;;;;10.73;4.5;;;8.3;91;;;;;;;;;
2021/04/17 00:25:02;;;;;;;10.73;4.5;;;8.3;91;;;;;;;;;
2021/04/17 00:25:07;;;;;;;10.73;4.5;;;8.3;91;;;;;;;;;
2021/04/17 00:25:12;;;;;;;10.73;4.5;;;8.3;91;;;;;;;;;
2021/04/17 00:25:27;;;;;;;7.17;4.73;;;8.3;91;;;;;;;;;
2021/04/17 00:25:42;;;;;;;7.17;4.73;;;8.3;91;;;;;;;;;
2021/04/17 00:25:53;;;;;;;7.17;4.73;;;8.3;91;;;;;;;;;
2021/04/17 00:26:02;;;;;;;7.17;4.73;;;8.3;91;;;;;;;;;
2021/04/17 00:26:08;;;;;;;7.17;4.73;;;8.3;91;;;;;;;;;
2021/04/17 00:26:13;;;;;;;7.17;4.73;;;8.3;91;;;;;;;;;
2021/04/17 00:26:30;;;;;;;8.77;4.9;;;8.3;91;;;;;;;;;
2021/04/17 00:26:44;;;;;;;8.77;4.9;;;8.3;91;;;;;;;;;
2021/04/17 00:26:54;;;;;;;8.77;4.9;;;8.3;91;;;;;;;;;
2021/04/17 00:27:02;;;;;;;8.77;4.9;;;8.3;91;;;;;;;;;
2021/04/17 00:27:06;;;;;;;8.77;4.9;;;8.3;91;;;;;;;;;
2021/04/17 00:27:15;;;;;;;8.77;4.9;;;8.3;91;;;;;;;;;
2021/04/17 00:27:25;;;;;;;5.1;4.6;;;8.3;91.1;;;;;;;;;
2021/04/17 00:27:40;;;;;;;5.1;4.6;;;8.3;91.1;;;;;;;;;
2021/04/17 00:27:56;;;;;;;5.1;4.6;;;8.3;91.1;;;;;;;;;
2021/04/17 00:28:01;;;;;;;5.1;4.6;;;8.3;91.1;;;;;;;;;
2021/04/17 00:28:06;;;;;;;5.1;4.6;;;8.3;91.1;;;;;;;;;
2021/04/17 00:28:16;;;;;;;5.1;4.6;;;8.3;91.1;;;;;;;;;
2021/04/17 00:28:27;;;;;;;4.77;4.03;;;8.3;91.1;;;;;;;;;
2021/04/17 00:28:42;;;;;;;4.77;4.03;;;8.3;91.1;;;;;;;;;
2021/04/17 00:28:57;;;;;;;4.77;4.03;;;8.3;91.1;;;;;;;;;
2021/04/17 00:29:02;;;;;;;4.77;4.03;;;8.3;91.1;;;;;;;;;
2021/04/17 00:29:07;;;;;;;4.77;4.03;;;8.3;91.1;;;;;;;;;
2021/04/17 00:29:18;;;;;;;4.77;4.03;;;8.3;91.1;;;;;;;;;
2021/04/17 00:29:28;;;;;;;5.37;4.27;;;8.2;91.1;;;;;;;;;
2021/04/17 00:29:38;;;;;;;5.37;4.27;;;8.2;91.1;;;;;;;;;
2021/04/17 00:29:53;;;;;;;5.37;4.27;;;8.2;91.1;;;;;;;;;
2021/04/17 00:30:02;;;;;;;5.37;4.27;;;8.2;91.1;;;;;;;;;
2021/04/17 00:30:09;;;;;;;5.37;4.27;;;8.2;91.1;;;;;;;;;
2021/04/17 00:30:14;;;;;;;5.37;4.27;;;8.2;91.1;;;;;;;;;
2021/04/17 00:30:29;;;;;;;6.1;4;;;8.3;91.2;;;;;;;;;
2021/04/17 00:30:39;;;;;;;6.1;4;;;8.3;91.2;;;;;;;;;
2021/04/17 00:30:55;;;;;;;6.1;4;;;8.3;91.2;;;;;;;;;
2021/04/17 00:31:01;;;;;;;6.1;4;;;8.3;91.2;;;;;;;;;
2021/04/17 00:31:10;;;;;;;6.1;4;;;8.3;91.2;;;;;;;;;
2021/04/17 00:31:15;;;;;;;6.1;4;;;8.3;91.2;;;;;;;;;
2021/04/17 00:31:31;;;;;;;5.23;3.7;;;8.3;90.9;;;;;;;;;
2021/04/17 00:31:41;;;;;;;5.23;3.7;;;8.3;90.9;;;;;;;;;
2021/04/17 00:31:51;;;;;;;5.23;3.7;;;8.3;90.9;;;;;;;;;
2021/04/17 00:32:02;;;;;;;5.23;3.7;;;8.3;90.9;;;;;;;;;
2021/04/17 00:32:07;;;;;;;5.23;3.7;;;8.3;90.9;;;;;;;;;
2021/04/17 00:32:17;;;;;;;5.23;3.7;;;8.3;90.9;;;;;;;;;
2021/04/17 00:32:27;;;;;;;7.37;3.9;;;8.3;91;;;;;;;;;
2021/04/17 00:32:42;;;;;;;7.37;3.9;;;8.3;91;;;;;;;;;
2021/04/17 00:32:53;;;;;;;7.37;3.9;;;8.3;91;;;;;;;;;
2021/04/17 00:33:02;;;;;;;7.37;3.9;;;8.3;91;;;;;;;;;
2021/04/17 00:33:08;;;;;;;7.37;3.9;;;8.3;91;;;;;;;;;
2021/04/17 00:33:13;;;;;;;7.37;3.9;;;8.3;91;;;;;;;;;
2021/04/17 00:33:28;;;;;;;6.13;3.97;;;8.3;91;;;;;;;;;
2021/04/17 00:33:44;;;;;;;6.13;3.97;;;8.3;91;;;;;;;;;
2021/04/17 00:33:54;;;;;;;6.13;3.97;;;8.3;91;;;;;;;;;
2021/04/17 00:34:02;;;;;;;6.13;3.97;;;8.3;91;;;;;;;;;
2021/04/17 00:34:04;;;;;;;6.13;3.97;;;8.3;91;;;;;;;;;
2021/04/17 00:34:14;;;;;;;6.13;3.97;;;8.3;91;;;;;;;;;
2021/04/17 00:34:30;;;;;;;5.83;3.8;;;8.3;91;;;;;;;;;
2021/04/17 00:34:40;;;;;;;5.83;3.8;;;8.3;91;;;;;;;;;
2021/04/17 00:34:55;;;;;;;5.83;3.8;;;8.3;91;;;;;;;;;
2021/04/17 00:35:02;;;;;;;5.83;3.8;;;8.3;91;;;;;;;;;
2021/04/17 00:35:06;;;;;;;5.83;3.8;;;8.3;91;;;;;;;;;
2021/04/17 00:35:16;;;;;;;5.83;3.8;;;8.3;91;;;;;;;;;
2021/04/17 00:35:26;;;;;;;4.43;3.5;;;8.2;91.1;;;;;;;;;
2021/04/17 00:35:41;;;;;;;4.43;3.5;;;8.2;91.1;;;;;;;;;
2021/04/17 00:35:57;;;;;;;4.43;3.5;;;8.2;91.1;;;;;;;;;
2021/04/17 00:36:02;;;;;;;4.43;3.5;;;8.2;91.1;;;;;;;;;
2021/04/17 00:36:07;;;;;;;4.43;3.5;;;8.2;91.1;;;;;;;;;
2021/04/17 00:36:12;;;;;;;4.43;3.5;;;8.2;91.1;;;;;;;;;
2021/04/17 00:36:28;;;;;;;4.57;3.43;;;8.3;91.1;;;;;;;;;
2021/04/17 00:36:43;;;;;;;4.57;3.43;;;8.3;91.1;;;;;;;;;
2021/04/17 00:36:53;;;;;;;4.57;3.43;;;8.3;91.1;;;;;;;;;
2021/04/17 00:37:02;;;;;;;4.57;3.43;;;8.3;91.1;;;;;;;;;
2021/04/17 00:37:09;;;;;;;4.57;3.43;;;8.3;91.1;;;;;;;;;
2021/04/17 00:37:14;;;;;;;4.57;3.43;;;8.3;91.1;;;;;;;;;
2021/04/17 00:37:29;;;;;;;4.63;3.73;;;8.2;91.2;;;;;;;;;
2021/04/17 00:37:39;;;;;;;4.63;3.73;;;8.2;91.2;;;;;;;;;
2021/04/17 00:37:55;;;;;;;4.63;3.73;;;8.2;91.2;;;;;;;;;
2021/04/17 00:38:01;;;;;;;4.63;3.73;;;8.2;91.2;;;;;;;;;
2021/04/17 00:38:10;;;;;;;4.63;3.73;;;8.2;91.2;;;;;;;;;
2021/04/17 00:38:15;;;;;;;4.63;3.73;;;8.2;91.2;;;;;;;;;
2021/04/17 00:38:25;;;;;;;4.63;3.73;;;8.2;91.2;;;;;;;;;
2021/04/17 00:38:41;;;;;;;6.33;3.7;;;8.1;91.1;;;;;;;;;
2021/04/17 00:38:56;;;;;;;6.33;3.7;;;8.1;91.1;;;;;;;;;
2021/04/17 00:39:02;;;;;;;6.33;3.7;;;8.1;91.1;;;;;;;;;
2021/04/17 00:39:06;;;;;;;6.33;3.7;;;8.1;91.1;;;;;;;;;
2021/04/17 00:39:17;;;;;;;6.33;3.7;;;8.1;91.1;;;;;;;;;
2021/04/17 00:39:27;;;;;;;6.33;3.7;;;8.1;91.1;;;;;;;;;
2021/04/17 00:39:42;;;;;;;3.93;3.17;;;8.2;91.1;;;;;;;;;
2021/04/17 00:39:52;;;;;;;3.93;3.17;;;8.2;91.1;;;;;;;;;
2021/04/17 00:40:01;;;;;;;3.93;3.17;;;8.2;91.1;;;;;;;;;
2021/04/17 00:40:08;;;;;;;3.93;3.17;;;8.2;91.1;;;;;;;;;
2021/04/17 00:40:13;;;;;;;3.93;3.17;;;8.2;91.1;;;;;;;;;
2021/04/17 00:40:28;;;;;;;3.93;3.2;;;8.2;91;;;;;;;;;
2021/04/17 00:40:38;;;;;;;3.93;3.2;;;8.2;91;;;;;;;;;
2021/04/17 00:40:54;;;;;;;3.93;3.2;;;8.2;91;;;;;;;;;
2021/04/17 00:41:02;;;;;;;3.93;3.2;;;8.2;91;;;;;;;;;
2021/04/17 00:41:09;;;;;;;3.93;3.2;;;8.2;91;;;;;;;;;
2021/04/17 00:41:14;;;;;;;3.93;3.2;;;8.2;91;;;;;;;;;
2021/04/17 00:41:30;;;;;;;4.37;3.3;;;8.3;91;;;;;;;;;
2021/04/17 00:41:40;;;;;;;4.37;3.3;;;8.3;91;;;;;;;;;
2021/04/17 00:41:55;;;;;;;4.37;3.3;;;8.3;91;;;;;;;;;
2021/04/17 00:42:02;;;;;;;4.37;3.3;;;8.3;91;;;;;;;;;
2021/04/17 00:42:05;;;;;;;4.37;3.3;;;8.3;91;;;;;;;;;
2021/04/17 00:42:16;;;;;;;4.37;3.3;;;8.3;91;;;;;;;;;
2021/04/17 00:42:26;;;;;;;4.37;3.3;;;8.3;91;;;;;;;;;
2021/04/17 00:42:41;;;;;;;6.43;3.57;;;8.3;91.2;;;;;;;;;
2021/04/17 00:42:52;;;;;;;6.43;3.57;;;8.3;91.2;;;;;;;;;
2021/04/17 00:43:01;;;;;;;6.43;3.57;;;8.3;91.2;;;;;;;;;
2021/04/17 00:43:07;;;;;;;6.43;3.57;;;8.3;91.2;;;;;;;;;
2021/04/17 00:43:12;;;;;;;6.43;3.57;;;8.3;91.2;;;;;;;;;
2021/04/17 00:43:27;;;;;;;6.43;3.57;;;8.3;91.2;;;;;;;;;
2021/04/17 00:43:43;;;;;;;5.47;3.4;;;8.3;91;;;;;;;;;
2021/04/17 00:43:53;;;;;;;5.47;3.4;;;8.3;91;;;;;;;;;
2021/04/17 00:44:02;;;;;;;5.47;3.4;;;8.3;91;;;;;;;;;
2021/04/17 00:44:08;;;;;;;5.47;3.4;;;8.3;91;;;;;;;;;
2021/04/17 00:44:13;;;;;;;5.47;3.4;;;8.3;91;;;;;;;;;
2021/04/17 00:44:29;;;;;;;4.97;3.17;;;8.3;90.9;;;;;;;;;
2021/04/17 00:44:39;;;;;;;4.97;3.17;;;8.3;90.9;;;;;;;;;
2021/04/17 00:44:55;;;;;;;4.97;3.17;;;8.3;90.9;;;;;;;;;
2021/04/17 00:45:02;;;;;;;4.97;3.17;;;8.3;90.9;;;;;;;;;
2021/04/17 00:45:05;;;;;;;4.97;3.17;;;8.3;90.9;;;;;;;;;
2021/04/17 00:45:15;;;;;;;4.97;3.17;;;8.3;90.9;;;;;;;;;
2021/04/17 00:45:25;;;;;;;4.97;3.17;;;8.3;90.9;;;;;;;;;
2021/04/17 00:45:41;;;;;;;4.2;3.1;;;8.3;91;;;;;;;;;
2021/04/17 00:45:56;;;;;;;4.2;3.1;;;8.3;91;;;;;;;;;
2021/04/17 00:46:02;;;;;;;4.2;3.1;;;8.3;91;;;;;;;;;
2021/04/17 00:46:06;;;;;;;4.2;3.1;;;8.3;91;;;;;;;;;
2021/04/17 00:46:16;;;;;;;4.2;3.1;;;8.3;91;;;;;;;;;
2021/04/17 00:46:27;;;;;;;4.2;3.1;;;8.3;91;;;;;;;;;
2021/04/17 00:46:42;;;;;;;3.7;3.17;;;8.2;91;;;;;;;;;
2021/04/17 00:46:52;;;;;;;3.7;3.17;;;8.2;91;;;;;;;;;
2021/04/17 00:47:02;;;;;;;3.7;3.17;;;8.2;91;;;;;;;;;
2021/04/17 00:47:08;;;;;;;3.7;3.17;;;8.2;91;;;;;;;;;
2021/04/17 00:47:18;;;;;;;3.7;3.17;;;8.2;91;;;;;;;;;
2021/04/17 00:47:28;;;;;;;3.7;3.17;;;8.2;91;;;;;;;;;
2021/04/17 00:47:38;;;;;;;5.37;3.43;;;8.2;91.2;;;;;;;;;
2021/04/17 00:47:54;;;;;;;5.37;3.43;;;8.2;91.2;;;;;;;;;
2021/04/17 00:48:01;;;;;;;5.37;3.43;;;8.2;91.2;;;;;;;;;
2021/04/17 00:48:09;;;;;;;5.37;3.43;;;8.2;91.2;;;;;;;;;
2021/04/17 00:48:14;;;;;;;5.37;3.43;;;8.2;91.2;;;;;;;;;
2021/04/17 00:48:29;;;;;;;5.37;3.43;;;8.2;91.2;;;;;;;;;
2021/04/17 00:48:40;;;;;;;3.8;3.3;;;8.2;91.1;;;;;;;;;
2021/04/17 00:48:55;;;;;;;3.8;3.3;;;8.2;91.1;;;;;;;;;
2021/04/17 00:49:02;;;;;;;3.8;3.3;;;8.2;91.1;;;;;;;;;
2021/04/17 00:49:07;;;;;;;3.8;3.3;;;8.2;91.1;;;;;;;;;
2021/04/17 00:49:16;;;;;;;3.8;3.3;;;8.2;91.1;;;;;;;;;
2021/04/17 00:49:31;;;;;;;5.37;3.5;;;8.3;91;;;;;;;;;
2021/04/17 00:49:41;;;;;;;5.37;3.5;;;8.3;91;;;;;;;;;
2021/04/17 00:49:51;;;;;;;5.37;3.5;;;8.3;91;;;;;;;;;
2021/04/17 00:50:01;;;;;;;5.37;3.5;;;8.3;91;;;;;;;;;
2021/04/17 00:50:07;;;;;;;5.37;3.5;;;8.3;91;;;;;;;;;
2021/04/17 00:50:12;;;;;;;5.37;3.5;;;8.3;91;;;;;;;;;
2021/04/17 00:50:27;;;;;;;5.37;3.5;;;8.3;91;;;;;;;;;
2021/04/17 00:50:43;;;;;;;4;3;;;8.2;91.1;;;;;;;;;
2021/04/17 00:50:53;;;;;;;4;3;;;8.2;91.1;;;;;;;;;
2021/04/17 00:51:02;;;;;;;4;3;;;8.2;91.1;;;;;;;;;
2021/04/17 00:51:08;;;;;;;4;3;;;8.2;91.1;;;;;;;;;
2021/04/17 00:51:13;;;;;;;4;3;;;8.2;91.1;;;;;;;;;
2021/04/17 00:51:29;;;;;;;4;3;;;8.2;91.1;;;;;;;;;
2021/04/17 00:51:44;;;;;;;4.7;3.6;;;8.1;91.2;;;;;;;;;
2021/04/17 00:51:54;;;;;;;4.7;3.6;;;8.1;91.2;;;;;;;;;
2021/04/17 00:52:02;;;;;;;4.7;3.6;;;8.1;91.2;;;;;;;;;
2021/04/17 00:52:05;;;;;;;4.7;3.6;;;8.1;91.2;;;;;;;;;
2021/04/17 00:52:15;;;;;;;4.7;3.6;;;8.1;91.2;;;;;;;;;
2021/04/17 00:52:25;;;;;;;4.7;3.6;;;8.1;91.2;;;;;;;;;
2021/04/17 00:52:40;;;;;;;3.7;2.9;;;8.1;91.2;;;;;;;;;
2021/04/17 00:52:56;;;;;;;3.7;2.9;;;8.1;91.2;;;;;;;;;
2021/04/17 00:53:01;;;;;;;3.7;2.9;;;8.1;91.2;;;;;;;;;
2021/04/17 00:53:06;;;;;;;3.7;2.9;;;8.1;91.2;;;;;;;;;
2021/04/17 00:53:16;;;;;;;3.7;2.9;;;8.1;91.2;;;;;;;;;
2021/04/17 00:53:26;;;;;;;3.7;2.9;;;8.1;91.2;;;;;;;;;
2021/04/17 00:53:42;;;;;;;3.93;2.93;;;8.2;91.1;;;;;;;;;
2021/04/17 00:53:57;;;;;;;3.93;2.93;;;8.2;91.1;;;;;;;;;
2021/04/17 00:54:02;;;;;;;3.93;2.93;;;8.2;91.1;;;;;;;;;
2021/04/17 00:54:08;;;;;;;3.93;2.93;;;8.2;91.1;;;;;;;;;
2021/04/17 00:54:13;;;;;;;3.93;2.93;;;8.2;91.1;;;;;;;;;
2021/04/17 00:54:28;;;;;;;3.93;2.93;;;8.2;91.1;;;;;;;;;
2021/04/17 00:54:38;;;;;;;3.9;2.93;;;8.2;91;;;;;;;;;
2021/04/17 00:54:53;;;;;;;3.9;2.93;;;8.2;91;;;;;;;;;
2021/04/17 00:55:02;;;;;;;3.9;2.93;;;8.2;91;;;;;;;;;
2021/04/17 00:55:09;;;;;;;3.9;2.93;;;8.2;91;;;;;;;;;
2021/04/17 00:55:14;;;;;;;3.9;2.93;;;8.2;91;;;;;;;;;
2021/04/17 00:55:29;;;;;;;3.9;2.93;;;8.2;91;;;;;;;;;
2021/04/17 00:55:40;;;;;;;6.37;3.37;;;8.2;91.2;;;;;;;;;
2021/04/17 00:55:55;;;;;;;6.37;3.37;;;8.2;91.2;;;;;;;;;
2021/04/17 00:56:02;;;;;;;6.37;3.37;;;8.2;91.2;;;;;;;;;
2021/04/17 00:56:10;;;;;;;6.37;3.37;;;8.2;91.2;;;;;;;;;
2021/04/17 00:56:15;;;;;;;6.37;3.37;;;8.2;91.2;;;;;;;;;
2021/04/17 00:56:26;;;;;;;6.37;3.37;;;8.2;91.2;;;;;;;;;
2021/04/17 00:56:41;;;;;;;4.77;2.97;;;8.1;91.1;;;;;;;;;
2021/04/17 00:56:51;;;;;;;4.77;2.97;;;8.1;91.1;;;;;;;;;
2021/04/17 00:57:02;;;;;;;4.77;2.97;;;8.1;91.1;;;;;;;;;
2021/04/17 00:57:07;;;;;;;4.77;2.97;;;8.1;91.1;;;;;;;;;
2021/04/17 00:57:17;;;;;;;4.77;2.97;;;8.1;91.1;;;;;;;;;
2021/04/17 00:57:27;;;;;;;4.77;2.97;;;8.1;91.1;;;;;;;;;
2021/04/17 00:57:42;;;;;;;5.8;3.2;;;8.1;91.3;;;;;;;;;
2021/04/17 00:57:53;;;;;;;5.8;3.2;;;8.1;91.3;;;;;;;;;
2021/04/17 00:58:02;;;;;;;5.8;3.2;;;8.1;91.3;;;;;;;;;
2021/04/17 00:58:08;;;;;;;5.8;3.2;;;8.1;91.3;;;;;;;;;
2021/04/17 00:58:13;;;;;;;5.8;3.2;;;8.1;91.3;;;;;;;;;
2021/04/17 00:58:29;;;;;;;5.8;3.2;;;8.1;91.3;;;;;;;;;
2021/04/17 00:58:39;;;;;;;4.17;2.6;;;8.1;91.3;;;;;;;;;
2021/04/17 00:58:54;;;;;;;4.17;2.6;;;8.1;91.3;;;;;;;;;
2021/04/17 00:59:02;;;;;;;4.17;2.6;;;8.1;91.3;;;;;;;;;
2021/04/17 00:59:05;;;;;;;4.17;2.6;;;8.1;91.3;;;;;;;;;
2021/04/17 00:59:15;;;;;;;4.17;2.6;;;8.1;91.3;;;;;;;;;
2021/04/17 00:59:30;;;;;;;4.17;2.6;;;8.1;91.3;;;;;;;;;
2021/04/17 00:59:40;;;;;;;6.13;3.13;;;8.1;91.1;;;;;;;;;
2021/04/17 00:59:56;;;;;;;6.13;3.13;;;8.1;91.1;;;;;;;;;
2021/04/17 01:00:01;;;;;;;6.13;3.13;;;8.1;91.1;;;;;;;;;
2021/04/17 01:00:06;;;;;;;6.13;3.13;;;8.1;91.1;;;;;;;;;
2021/04/17 01:00:16;;;;;;;6.13;3.13;;;8.1;91.1;;;;;;;;;
2021/04/17 01:00:26;;;;;;;6.13;3.13;;;8.1;91.1;;;;;;;;;
2021/04/17 01:00:42;;;;;;;3.6;2.67;;;8.1;91.2;;;;;;;;;
2021/04/17 01:00:52;;;;;;;3.6;2.67;;;8.1;91.2;;;;;;;;;
2021/04/17 01:01:02;;;;;;;3.6;2.67;;;8.1;91.2;;;;;;;;;
2021/04/17 01:01:08;;;;;;;3.6;2.67;;;8.1;91.2;;;;;;;;;
2021/04/17 01:01:12;;;;;;;3.6;2.67;;;8.1;91.2;;;;;;;;;
2021/04/17 01:01:28;;;;;;;3.6;2.67;;;8.1;91.2;;;;;;;;;
2021/04/17 01:01:43;;;;;;;3.8;2.8;;;8.1;91.2;;;;;;;;;
2021/04/17 01:01:53;;;;;;;3.8;2.8;;;8.1;91.2;;;;;;;;;
2021/04/17 01:02:02;;;;;;;3.8;2.8;;;8.1;91.2;;;;;;;;;
2021/04/17 01:02:09;;;;;;;3.8;2.8;;;8.1;91.2;;;;;;;;;
2021/04/17 01:02:14;;;;;;;3.8;2.8;;;8.1;91.2;;;;;;;;;
2021/04/17 01:02:29;;;;;;;3.8;2.8;;;8.1;91.2;;;;;;;;;
2021/04/17 01:02:39;;;;;;;5.3;2.6;;;8.1;91.2;;;;;;;;;
2021/04/17 01:02:55;;;;;;;5.3;2.6;;;8.1;91.2;;;;;;;;;
2021/04/17 01:03:02;;;;;;;5.3;2.6;;;8.1;91.2;;;;;;;;;
2021/04/17 01:03:05;;;;;;;5.3;2.6;;;8.1;91.2;;;;;;;;;
2021/04/17 01:03:15;;;;;;;5.3;2.6;;;8.1;91.2;;;;;;;;;
2021/04/17 01:03:25;;;;;;;5.3;2.6;;;8.1;91.2;;;;;;;;;
2021/04/17 01:03:41;;;;;;;4.67;2.9;;;8.1;91.2;;;;;;;;;
2021/04/17 01:03:56;;;;;;;4.67;2.9;;;8.1;91.2;;;;;;;;;
2021/04/17 01:04:02;;;;;;;4.67;2.9;;;8.1;91.2;;;;;;;;;
2021/04/17 01:04:06;;;;;;;4.67;2.9;;;8.1;91.2;;;;;;;;;
2021/04/17 01:04:17;;;;;;;4.67;2.9;;;8.1;91.2;;;;;;;;;
2021/04/17 01:04:27;;;;;;;4.67;2.9;;;8.1;91.2;;;;;;;;;
2021/04/17 01:04:42;;;;;;;5.87;2.87;;;8.1;91.2;;;;;;;;;
2021/04/17 01:04:53;;;;;;;5.87;2.87;;;8.1;91.2;;;;;;;;;
2021/04/17 01:05:01;;;;;;;5.87;2.87;;;8.1;91.2;;;;;;;;;
2021/04/17 01:05:08;;;;;;;5.87;2.87;;;8.1;91.2;;;;;;;;;
2021/04/17 01:05:18;;;;;;;5.87;2.87;;;8.1;91.2;;;;;;;;;
2021/04/17 01:05:34;;;;;;;5.87;2.87;;;8.1;91.2;;;;;;;;;
2021/04/17 01:05:44;;;;;;;3.83;3;;;8.1;91.2;;;;;;;;;
2021/04/17 01:05:59;;;;;;;3.83;3;;;8.1;91.2;;;;;;;;;
2021/04/17 01:06:02;;;;;;;3.83;3;;;8.1;91.2;;;;;;;;;
2021/04/17 01:06:09;;;;;;;3.83;3;;;8.1;91.2;;;;;;;;;
2021/04/17 01:06:15;;;;;;;3.83;3;;;8.1;91.2;;;;;;;;;
2021/04/17 01:06:40;;;;;;;4.67;2.77;;;8;91.1;;;;;;;;;
2021/04/17 01:06:45;;;;;;;4.67;2.77;;;8;91.1;;;;;;;;;
2021/04/17 01:06:58;;;;;;;4.67;2.77;;;8;91.1;;;;;;;;;
2021/04/17 01:07:03;;;;;;;4.67;2.77;;;8;91.1;;;;;;;;;
2021/04/17 01:07:06;;;;;;;4.67;2.77;;;8;91.1;;;;;;;;;
2021/04/17 01:07:16;;;;;;;4.67;2.77;;;8;91.1;;;;;;;;;
2021/04/17 01:07:31;;;;;;;4.67;2.77;;;8;91.1;;;;;;;;;
2021/04/17 01:07:47;;;;;;;3.97;2.77;;;8;91.4;;;;;;;;;
2021/04/17 01:07:57;;;;;;;3.97;2.77;;;8;91.4;;;;;;;;;
2021/04/17 01:08:02;;;;;;;3.97;2.77;;;8;91.4;;;;;;;;;
2021/04/17 01:08:12;;;;;;;3.97;2.77;;;8;91.4;;;;;;;;;
2021/04/17 01:08:17;;;;;;;3.97;2.77;;;8;91.4;;;;;;;;;
2021/04/17 01:08:33;;;;;;;3.97;2.77;;;8;91.4;;;;;;;;;
2021/04/17 01:08:58;;;;;;;4.93;2.6;;;8;91.4;;;;;;;;;
2021/04/17 01:08:58;;;;;;;4.93;2.6;;;8;91.4;;;;;;;;;
2021/04/17 01:09:02;;;;;;;4.93;2.6;;;8;91.4;;;;;;;;;
2021/04/17 01:09:14;;;;;;;4.93;2.6;;;8;91.4;;;;;;;;;
2021/04/17 01:09:19;;;;;;;4.93;2.6;;;8;91.4;;;;;;;;;
2021/04/17 01:09:29;;;;;;;4.93;2.6;;;8;91.4;;;;;;;;;
2021/04/17 01:09:45;;;;;;;3.23;2.93;;;8;91.5;;;;;;;;;
2021/04/17 01:10:00;;;;;;;3.23;2.93;;;8;91.5;;;;;;;;;
2021/04/17 01:10:02;;;;;;;3.23;2.93;;;8;91.5;;;;;;;;;
2021/04/17 01:10:10;;;;;;;3.23;2.93;;;8;91.5;;;;;;;;;
2021/04/17 01:10:15;;;;;;;3.23;2.93;;;8;91.5;;;;;;;;;
2021/04/17 01:10:36;;;;;;;3.23;2.93;;;8;91.5;;;;;;;;;
2021/04/17 01:10:46;;;;;;;5.77;3.43;;;8;91.4;;;;;;;;;
2021/04/17 01:11:02;;;;;;;5.77;3.43;;;8;91.4;;;;;;;;;
2021/04/17 01:11:17;;;;;;;5.77;3.43;;;8;91.4;;;;;;;;;
2021/04/17 01:11:17;;;;;;;5.77;3.43;;;8;91.4;;;;;;;;;
2021/04/17 01:11:17;;;;;;;5.77;3.43;;;8;91.4;;;;;;;;;
2021/04/17 01:11:32;;;;;;;5.77;3.43;;;8;91.4;;;;;;;;;
2021/04/17 01:11:42;;;;;;;3.33;2.4;;;8;91.4;;;;;;;;;
2021/04/17 01:11:58;;;;;;;3.33;2.4;;;8;91.4;;;;;;;;;
2021/04/17 01:12:01;;;;;;;3.33;2.4;;;8;91.4;;;;;;;;;
2021/04/17 01:12:13;;;;;;;3.33;2.4;;;8;91.4;;;;;;;;;
2021/04/17 01:12:18;;;;;;;3.33;2.4;;;8;91.4;;;;;;;;;
2021/04/17 01:12:33;;;;;;;3.33;2.4;;;8;91.4;;;;;;;;;
2021/04/17 01:12:49;;;;;;;3.47;2.67;;;7.9;91.5;;;;;;;;;
2021/04/17 01:13:02;;;;;;;3.47;2.67;;;7.9;91.5;;;;;;;;;
2021/04/17 01:13:04;;;;;;;3.47;2.67;;;7.9;91.5;;;;;;;;;
2021/04/17 01:13:19;;;;;;;3.47;2.67;;;7.9;91.5;;;;;;;;;
2021/04/17 01:13:35;;;;;;;3.47;2.67;;;7.9;91.5;;;;;;;;;
2021/04/17 01:13:35;;;;;;;3.47;2.67;;;7.9;91.5;;;;;;;;;
2021/04/17 01:13:50;;;;;;;4.63;2.9;;;7.9;91.5;;;;;;;;;
2021/04/17 01:13:55;;;;;;;4.63;2.9;;;7.9;91.5;;;;;;;;;
2021/04/17 01:14:01;;;;;;;4.63;2.9;;;7.9;91.5;;;;;;;;;
2021/04/17 01:14:11;;;;;;;4.63;2.9;;;7.9;91.5;;;;;;;;;
2021/04/17 01:14:16;;;;;;;4.63;2.9;;;7.9;91.5;;;;;;;;;
2021/04/17 01:14:31;;;;;;;4.63;2.9;;;7.9;91.5;;;;;;;;;
2021/04/17 01:14:46;;;;;;;2.97;2.5;;;8;91.4;;;;;;;;;
2021/04/17 01:15:02;;;;;;;2.97;2.5;;;8;91.4;;;;;;;;;
2021/04/17 01:15:02;;;;;;;2.97;2.5;;;8;91.4;;;;;;;;;
2021/04/17 01:15:12;;;;;;;2.97;2.5;;;8;91.4;;;;;;;;;
2021/04/17 01:15:17;;;;;;;2.97;2.5;;;8;91.4;;;;;;;;;
2021/04/17 01:15:33;;;;;;;2.97;2.5;;;8;91.4;;;;;;;;;
2021/04/17 01:15:48;;;;;;;5.67;2.57;;;8;91.3;;;;;;;;;
2021/04/17 01:16:02;;;;;;;5.67;2.57;;;8;91.3;;;;;;;;;
2021/04/17 01:16:04;;;;;;;5.67;2.57;;;8;91.3;;;;;;;;;
2021/04/17 01:16:08;;;;;;;5.67;2.57;;;8;91.3;;;;;;;;;
2021/04/17 01:16:14;;;;;;;5.67;2.57;;;8;91.3;;;;;;;;;
2021/04/17 01:16:29;;;;;;;5.67;2.57;;;8;91.3;;;;;;;;;
2021/04/17 01:16:44;;;;;;;6.23;2.93;;;7.9;91.4;;;;;;;;;
2021/04/17 01:17:00;;;;;;;6.23;2.93;;;7.9;91.4;;;;;;;;;
2021/04/17 01:17:01;;;;;;;6.23;2.93;;;7.9;91.4;;;;;;;;;
2021/04/17 01:17:15;;;;;;;6.23;2.93;;;7.9;91.4;;;;;;;;;
2021/04/17 01:17:15;;;;;;;6.23;2.93;;;7.9;91.4;;;;;;;;;
2021/04/17 01:17:25;;;;;;;6.23;2.93;;;7.9;91.4;;;;;;;;;
2021/04/17 01:17:48;;;;;;;3.6;2.73;;;7.9;91.6;;;;;;;;;
2021/04/17 01:18:01;;;;;;;3.6;2.73;;;7.9;91.6;;;;;;;;;
2021/04/17 01:18:02;;;;;;;3.6;2.73;;;7.9;91.6;;;;;;;;;
2021/04/17 01:18:17;;;;;;;3.6;2.73;;;7.9;91.6;;;;;;;;;